createdAt,value
2018-08-19T00:01:11.354Z,69.70
2018-08-19T00:03:45.355Z,69.40
2018-08-19T00:06:18.941Z,66.60
2018-08-19T00:08:52.603Z,68.30
2018-08-19T00:11:26.171Z,70.10
2018-08-19T00:13:59.634Z,69.10
2018-08-19T00:16:33.822Z,67.90
2018-08-19T00:19:07.286Z,70.00
2018-08-19T00:21:40.886Z,70.50
2018-08-19T00:24:15.055Z,68.10
2018-08-19T00:26:48.555Z,68.10
2018-08-19T00:29:28.814Z,70.10
2018-08-19T00:32:01.988Z,71.00
2018-08-19T00:34:35.660Z,67.50
2018-08-19T00:37:10.358Z,68.30
2018-08-19T00:39:43.370Z,70.00
2018-08-19T00:42:18.275Z,71.40
2018-08-19T00:44:52.361Z,67.50
2018-08-19T00:47:25.381Z,68.40
2018-08-19T00:50:04.376Z,70.50
2018-08-19T00:52:37.198Z,71.60
2018-08-19T00:55:10.117Z,67.60
2018-08-19T00:57:46.899Z,67.80
2018-08-19T01:00:20.697Z,70.10
2018-08-19T01:02:53.643Z,71.00
2018-08-19T01:05:26.694Z,68.20
2018-08-19T01:07:59.650Z,67.50
2018-08-19T01:10:32.662Z,69.90
2018-08-19T01:13:06.990Z,71.00
2018-08-19T01:15:41.206Z,68.70
2018-08-19T01:18:15.476Z,67.30
2018-08-19T01:20:49.394Z,69.50
2018-08-19T01:23:22.949Z,71.20
2018-08-19T01:25:58.383Z,69.10
2018-08-19T01:28:32.329Z,67.60
2018-08-19T01:31:05.996Z,68.20
2018-08-19T01:33:39.683Z,68.10
2018-08-19T01:36:14.529Z,67.90
2018-08-19T01:38:49.346Z,67.70
2018-08-19T01:41:23.053Z,68.50
2018-08-19T01:44:10.158Z,67.70
2018-08-19T01:46:46.095Z,67.80
2018-08-19T01:49:18.987Z,67.80
2018-08-19T01:51:52.647Z,67.90
2018-08-19T01:54:26.829Z,68.00
2018-08-19T01:57:03.964Z,68.00
2018-08-19T01:59:37.644Z,68.20
2018-08-19T02:02:10.479Z,68.30
2018-08-19T02:04:57.955Z,68.50
2018-08-19T02:07:31.299Z,68.60
2018-08-19T02:10:08.185Z,68.70
2018-08-19T02:12:41.627Z,68.90
2018-08-19T02:15:14.814Z,68.90
2018-08-19T02:17:55.345Z,69.00
2018-08-19T02:20:42.283Z,69.00
2018-08-19T02:23:15.755Z,69.10
2018-08-19T02:25:50.366Z,69.00
2018-08-19T02:28:25.357Z,69.30
2018-08-19T02:31:03.334Z,69.40
2018-08-19T02:33:37.750Z,69.30
2018-08-19T02:36:12.001Z,69.20
2018-08-19T02:38:44.995Z,69.30
2018-08-19T02:41:18.006Z,69.40
2018-08-19T02:43:59.432Z,69.20
2018-08-19T02:46:33.216Z,70.10
2018-08-19T02:49:07.938Z,69.40
2018-08-19T02:51:40.774Z,69.50
2018-08-19T02:54:14.596Z,69.30
2018-08-19T02:56:47.480Z,69.30
2018-08-19T02:59:20.365Z,69.30
2018-08-19T03:01:54.414Z,69.30
2018-08-19T03:04:27.252Z,69.30
2018-08-19T03:07:00.259Z,69.20
2018-08-19T03:09:33.166Z,69.30
2018-08-19T03:12:10.911Z,69.30
2018-08-19T03:14:44.301Z,69.20
2018-08-19T03:17:17.491Z,69.30
2018-08-19T03:19:50.482Z,69.30
2018-08-19T03:22:23.460Z,69.20
2018-08-19T03:24:57.062Z,69.00
2018-08-19T03:27:30.685Z,69.10
2018-08-19T03:30:05.148Z,69.10
2018-08-19T03:32:39.869Z,69.20
2018-08-19T03:35:19.142Z,69.10
2018-08-19T03:37:53.964Z,69.00
2018-08-19T03:40:29.039Z,68.90
2018-08-19T03:43:02.165Z,68.80
2018-08-19T03:45:36.937Z,68.90
2018-08-19T03:48:09.898Z,68.90
2018-08-19T03:50:42.865Z,68.90
2018-08-19T03:53:16.601Z,68.90
2018-08-19T03:55:49.579Z,68.70
2018-08-19T03:58:23.050Z,68.80
2018-08-19T04:00:55.921Z,68.70
2018-08-19T04:03:29.035Z,68.60
2018-08-19T04:06:02.690Z,68.70
2018-08-19T04:08:41.535Z,68.60
2018-08-19T04:11:15.595Z,69.40
2018-08-19T04:13:48.459Z,68.70
2018-08-19T04:16:21.486Z,69.40
2018-08-19T04:18:58.022Z,68.60
2018-08-19T04:21:31.835Z,68.60
2018-08-19T04:24:05.068Z,68.70
2018-08-19T04:26:37.962Z,68.70
2018-08-19T04:29:15.137Z,68.60
2018-08-19T04:31:48.065Z,68.70
2018-08-19T04:34:20.919Z,68.50
2018-08-19T04:36:54.637Z,68.50
2018-08-19T04:39:27.438Z,68.60
2018-08-19T04:42:02.006Z,68.60
2018-08-19T04:44:34.824Z,68.80
2018-08-19T04:47:20.487Z,68.70
2018-08-19T04:49:54.669Z,68.70
2018-08-19T04:52:29.566Z,68.60
2018-08-19T04:55:03.671Z,68.80
2018-08-19T04:57:36.616Z,68.70
2018-08-19T05:00:09.702Z,68.80
2018-08-19T05:02:42.611Z,68.70
2018-08-19T05:05:15.599Z,68.80
2018-08-19T05:07:49.147Z,68.80
2018-08-19T05:10:22.243Z,68.80
2018-08-19T05:12:55.482Z,68.80
2018-08-19T05:15:28.544Z,68.80
2018-08-19T05:18:01.539Z,69.00
2018-08-19T05:20:35.866Z,68.80
2018-08-19T05:23:09.341Z,68.60
2018-08-19T05:25:47.616Z,68.50
2018-08-19T05:28:21.688Z,68.50
2018-08-19T05:30:55.481Z,68.50
2018-08-19T05:33:28.522Z,68.40
2018-08-19T05:36:01.338Z,68.30
2018-08-19T05:38:35.663Z,68.20
2018-08-19T05:41:08.969Z,68.20
2018-08-19T05:43:41.971Z,68.10
2018-08-19T05:46:14.849Z,68.10
2018-08-19T05:48:48.065Z,68.10
2018-08-19T05:51:21.877Z,68.10
2018-08-19T05:53:55.217Z,68.10
2018-08-19T05:56:28.266Z,68.10
2018-08-19T05:59:01.219Z,68.00
2018-08-19T06:01:34.265Z,68.00
2018-08-19T06:04:08.230Z,67.90
2018-08-19T06:06:41.055Z,67.80
2018-08-19T06:09:14.800Z,67.80
2018-08-19T06:11:47.621Z,67.70
2018-08-19T06:14:20.657Z,67.80
2018-08-19T06:16:54.029Z,67.70
2018-08-19T06:19:27.118Z,67.70
2018-08-19T06:22:01.972Z,67.60
2018-08-19T06:24:35.107Z,67.60
2018-08-19T06:27:08.435Z,67.50
2018-08-19T06:29:54.541Z,67.60
2018-08-19T06:32:33.138Z,67.60
2018-08-19T06:35:06.697Z,67.50
2018-08-19T06:37:39.688Z,67.50
2018-08-19T06:40:16.879Z,67.40
2018-08-19T06:42:49.805Z,67.30
2018-08-19T06:45:22.704Z,67.20
2018-08-19T06:47:56.137Z,67.10
2018-08-19T06:50:34.845Z,67.10
2018-08-19T06:53:08.376Z,67.00
2018-08-19T06:55:41.326Z,66.90
2018-08-19T06:58:14.706Z,66.90
2018-08-19T07:00:48.561Z,66.70
2018-08-19T07:03:21.489Z,66.70
2018-08-19T07:06:07.335Z,66.70
2018-08-19T07:08:40.069Z,66.60
2018-08-19T07:11:12.981Z,66.60
2018-08-19T07:13:47.151Z,66.40
2018-08-19T07:16:21.345Z,66.40
2018-08-19T07:18:54.232Z,66.30
2018-08-19T07:21:27.136Z,66.40
2018-08-19T07:24:00.031Z,66.20
2018-08-19T07:26:34.439Z,66.20
2018-08-19T07:29:07.365Z,66.30
2018-08-19T07:31:41.138Z,66.30
2018-08-19T07:34:14.755Z,66.30
2018-08-19T07:36:48.713Z,66.20
2018-08-19T07:39:21.999Z,66.20
2018-08-19T07:41:54.973Z,66.30
2018-08-19T07:44:28.316Z,66.30
2018-08-19T07:47:01.343Z,66.40
2018-08-19T07:49:34.237Z,66.30
2018-08-19T07:52:07.195Z,66.40
2018-08-19T07:54:40.132Z,66.30
2018-08-19T07:57:18.066Z,66.40
2018-08-19T07:59:51.087Z,66.50
2018-08-19T08:02:24.270Z,66.40
2018-08-19T08:04:57.285Z,66.50
2018-08-19T08:07:32.904Z,66.60
2018-08-19T08:10:07.468Z,66.50
2018-08-19T08:12:40.506Z,66.60
2018-08-19T08:15:13.808Z,66.70
2018-08-19T08:17:46.756Z,66.70
2018-08-19T08:20:19.611Z,66.90
2018-08-19T08:22:53.388Z,66.90
2018-08-19T08:25:26.255Z,66.90
2018-08-19T08:27:59.774Z,66.80
2018-08-19T08:30:32.687Z,66.90
2018-08-19T08:33:05.642Z,67.00
2018-08-19T08:35:42.666Z,67.00
2018-08-19T08:38:16.458Z,67.00
2018-08-19T08:40:50.515Z,67.00
2018-08-19T08:43:24.040Z,67.10
2018-08-19T08:45:59.941Z,66.90
2018-08-19T08:48:32.840Z,67.00
2018-08-19T08:51:05.898Z,66.90
2018-08-19T08:53:43.908Z,66.90
2018-08-19T08:56:17.032Z,66.90
2018-08-19T08:58:50.505Z,66.90
2018-08-19T09:01:23.382Z,66.90
2018-08-19T09:03:56.322Z,66.80
2018-08-19T09:06:32.299Z,66.90
2018-08-19T09:09:05.278Z,66.90
2018-08-19T09:11:39.241Z,66.80
2018-08-19T09:14:12.129Z,66.70
2018-08-19T09:16:45.152Z,66.70
2018-08-19T09:19:18.082Z,66.70
2018-08-19T09:21:51.049Z,66.70
2018-08-19T09:24:24.730Z,66.70
2018-08-19T09:26:57.824Z,67.40
2018-08-19T09:29:30.811Z,66.50
2018-08-19T09:32:03.735Z,66.60
2018-08-19T09:34:36.768Z,66.50
2018-08-19T09:37:10.706Z,66.60
2018-08-19T09:39:43.689Z,66.60
2018-08-19T09:42:16.907Z,66.50
2018-08-19T09:44:49.754Z,66.40
2018-08-19T09:47:22.661Z,66.40
2018-08-19T09:49:55.636Z,66.30
2018-08-19T09:52:28.604Z,66.40
2018-08-19T09:55:05.583Z,66.40
2018-08-19T09:57:42.034Z,66.40
2018-08-19T10:00:15.185Z,66.40
2018-08-19T10:02:52.248Z,66.50
2018-08-19T10:05:27.470Z,66.40
2018-08-19T10:08:00.916Z,66.40
2018-08-19T10:10:37.831Z,66.30
2018-08-19T10:13:11.125Z,67.00
2018-08-19T10:15:43.989Z,66.30
2018-08-19T10:18:16.886Z,67.00
2018-08-19T10:20:50.402Z,66.20
2018-08-19T10:23:26.152Z,66.20
2018-08-19T10:25:59.019Z,66.20
2018-08-19T10:28:31.966Z,66.10
2018-08-19T10:31:04.868Z,66.10
2018-08-19T10:33:38.463Z,66.20
2018-08-19T10:36:15.680Z,66.20
2018-08-19T10:38:49.065Z,66.20
2018-08-19T10:41:21.946Z,66.10
2018-08-19T10:43:54.911Z,66.00
2018-08-19T10:46:27.813Z,66.10
2018-08-19T10:49:00.709Z,66.80
2018-08-19T10:51:37.434Z,66.80
2018-08-19T10:54:10.266Z,66.60
2018-08-19T10:56:43.185Z,66.40
2018-08-19T10:59:19.324Z,66.10
2018-08-19T11:01:52.268Z,66.20
2018-08-19T11:04:25.941Z,66.70
2018-08-19T11:06:58.719Z,66.70
2018-08-19T11:09:32.402Z,67.00
2018-08-19T11:12:05.257Z,67.00
2018-08-19T11:14:38.250Z,67.00
2018-08-19T11:17:11.470Z,67.00
2018-08-19T11:19:44.392Z,67.00
2018-08-19T11:22:18.077Z,67.00
2018-08-19T11:24:51.030Z,67.10
2018-08-19T11:27:24.756Z,67.40
2018-08-19T11:29:57.653Z,67.30
2018-08-19T11:32:39.645Z,67.20
2018-08-19T11:35:13.528Z,67.10
2018-08-19T11:37:46.448Z,67.20
2018-08-19T11:40:20.852Z,67.20
2018-08-19T11:42:53.757Z,67.20
2018-08-19T11:45:26.813Z,67.10
2018-08-19T11:48:03.609Z,67.00
2018-08-19T11:50:36.532Z,67.00
2018-08-19T11:53:09.489Z,67.00
2018-08-19T11:55:43.553Z,67.10
2018-08-19T11:58:28.241Z,67.20
2018-08-19T12:01:05.702Z,67.10
2018-08-19T12:04:05.235Z,67.30
2018-08-19T12:06:38.422Z,67.40
2018-08-19T12:09:13.478Z,67.50
2018-08-19T12:11:46.362Z,67.60
2018-08-19T12:14:20.766Z,67.60
2018-08-19T12:16:59.961Z,67.80
2018-08-19T12:19:33.975Z,67.80
2018-08-19T12:22:07.624Z,67.80
2018-08-19T12:24:46.813Z,67.80
2018-08-19T12:27:21.994Z,67.70
2018-08-19T12:30:02.322Z,67.70
2018-08-19T12:32:35.314Z,67.80
2018-08-19T12:35:08.742Z,68.30
2018-08-19T12:37:41.843Z,68.80
2018-08-19T12:40:14.797Z,68.70
2018-08-19T12:42:51.773Z,68.50
2018-08-19T12:45:25.759Z,68.20
2018-08-19T12:47:58.647Z,68.20
2018-08-19T12:50:31.562Z,68.10
2018-08-19T12:53:04.985Z,68.20
2018-08-19T12:55:37.859Z,68.50
2018-08-19T12:58:11.477Z,69.20
2018-08-19T13:00:44.404Z,68.50
2018-08-19T13:03:17.332Z,68.50
2018-08-19T13:06:09.481Z,68.50
2018-08-19T13:08:43.248Z,68.50
2018-08-19T13:11:16.249Z,68.80
2018-08-19T13:13:49.148Z,69.00
2018-08-19T13:16:21.981Z,68.90
2018-08-19T13:18:56.365Z,69.20
2018-08-19T13:21:31.508Z,69.30
2018-08-19T13:24:05.259Z,69.10
2018-08-19T13:26:38.204Z,69.20
2018-08-19T13:29:11.088Z,69.00
2018-08-19T13:31:44.432Z,68.90
2018-08-19T13:34:17.356Z,68.80
2018-08-19T13:36:51.806Z,68.70
2018-08-19T13:39:24.715Z,68.60
2018-08-19T13:41:57.903Z,68.90
2018-08-19T13:44:30.824Z,68.80
2018-08-19T13:47:03.775Z,68.60
2018-08-19T13:49:37.064Z,68.60
2018-08-19T13:52:10.051Z,68.50
2018-08-19T13:54:51.383Z,68.50
2018-08-19T13:57:24.313Z,68.60
2018-08-19T13:59:57.185Z,68.60
2018-08-19T14:02:30.193Z,68.30
2018-08-19T14:05:03.172Z,68.00
2018-08-19T14:07:36.183Z,67.70
2018-08-19T14:10:10.524Z,67.30
2018-08-19T14:12:43.416Z,67.00
2018-08-19T14:15:16.446Z,66.90
2018-08-19T14:17:49.476Z,67.10
2018-08-19T14:20:22.760Z,67.20
2018-08-19T14:22:56.059Z,67.40
2018-08-19T14:25:30.117Z,67.50
2018-08-19T14:28:03.216Z,67.60
2018-08-19T14:30:36.415Z,67.70
2018-08-19T14:33:10.077Z,67.60
2018-08-19T14:35:43.231Z,67.50
2018-08-19T14:38:16.346Z,67.60
2018-08-19T14:40:50.506Z,67.60
2018-08-19T14:43:23.395Z,67.70
2018-08-19T14:45:56.796Z,67.60
2018-08-19T14:48:29.741Z,67.70
2018-08-19T14:51:03.051Z,67.80
2018-08-19T14:53:35.982Z,67.80
2018-08-19T14:56:17.909Z,68.00
2018-08-19T14:58:51.361Z,68.10
2018-08-19T15:01:24.152Z,68.00
2018-08-19T15:04:00.170Z,68.10
2018-08-19T15:06:33.142Z,68.10
2018-08-19T15:09:06.635Z,68.10
2018-08-19T15:11:39.513Z,68.20
2018-08-19T15:14:18.454Z,68.30
2018-08-19T15:16:53.110Z,68.20
2018-08-19T15:19:26.496Z,68.20
2018-08-19T15:22:00.953Z,68.20
2018-08-19T15:24:34.291Z,68.20
2018-08-19T15:27:07.833Z,68.30
2018-08-19T15:29:46.766Z,68.40
2018-08-19T15:32:20.449Z,68.40
2018-08-19T15:34:53.899Z,68.50
2018-08-19T15:37:27.031Z,68.70
2018-08-19T15:40:00.067Z,68.90
2018-08-19T15:42:34.926Z,68.90
2018-08-19T15:45:08.002Z,69.00
2018-08-19T15:47:40.961Z,68.80
2018-08-19T15:50:21.431Z,68.70
2018-08-19T15:52:54.583Z,68.70
2018-08-19T15:55:29.542Z,68.80
2018-08-19T15:58:04.866Z,68.90
2018-08-19T16:00:40.994Z,68.80
2018-08-19T16:03:15.380Z,68.80
2018-08-19T16:05:48.246Z,69.00
2018-08-19T16:08:21.239Z,69.20
2018-08-19T16:10:54.135Z,66.90
2018-08-19T16:13:27.253Z,64.00
2018-08-19T16:16:00.270Z,61.80
2018-08-19T16:18:33.206Z,59.70
2018-08-19T16:21:06.484Z,58.30
2018-08-19T16:23:39.370Z,57.20
2018-08-19T16:26:12.653Z,55.60
2018-08-19T16:28:45.615Z,54.70
2018-08-19T16:31:19.147Z,53.90
2018-08-19T16:33:52.112Z,53.10
2018-08-19T16:36:25.031Z,52.40
2018-08-19T16:38:59.296Z,51.70
2018-08-19T16:41:32.726Z,51.40
2018-08-19T16:44:05.944Z,50.90
2018-08-19T16:46:39.001Z,50.40
2018-08-19T16:49:11.888Z,50.20
2018-08-19T16:51:44.849Z,50.10
2018-08-19T16:54:17.807Z,49.60
2018-08-19T16:56:52.347Z,52.70
2018-08-19T16:59:25.237Z,55.00
2018-08-19T17:01:58.168Z,56.30
2018-08-19T17:04:32.258Z,54.20
2018-08-19T17:07:05.152Z,52.90
2018-08-19T17:09:39.539Z,54.70
2018-08-19T17:12:12.424Z,57.10
2018-08-19T17:14:45.295Z,58.80
2018-08-19T17:17:19.892Z,56.60
2018-08-19T17:19:52.825Z,55.00
2018-08-19T17:22:26.245Z,56.20
2018-08-19T17:24:59.249Z,58.30
2018-08-19T17:27:32.711Z,59.60
2018-08-19T17:30:08.684Z,57.60
2018-08-19T17:32:41.637Z,56.10
2018-08-19T17:35:15.740Z,55.70
2018-08-19T17:37:48.592Z,58.10
2018-08-19T17:40:21.950Z,59.70
2018-08-19T17:42:54.817Z,59.00
2018-08-19T17:45:27.786Z,56.70
2018-08-19T17:48:00.807Z,55.40
2018-08-19T17:50:33.960Z,57.60
2018-08-19T17:53:07.249Z,59.30
2018-08-19T17:55:40.227Z,60.50
2018-08-19T17:58:13.180Z,57.50
2018-08-19T18:00:46.091Z,56.10
2018-08-19T18:03:19.014Z,58.40
2018-08-19T18:05:52.060Z,60.20
2018-08-19T18:08:25.872Z,60.90
2018-08-19T18:11:00.529Z,57.80
2018-08-19T18:13:34.815Z,59.50
2018-08-19T18:16:07.683Z,61.20
2018-08-19T18:18:40.568Z,62.40
2018-08-19T18:21:14.527Z,58.90
2018-08-19T18:23:51.133Z,59.10
2018-08-19T18:26:23.968Z,61.20
2018-08-19T18:28:56.891Z,62.70
2018-08-19T18:31:30.699Z,60.40
2018-08-19T18:34:04.317Z,59.20
2018-08-19T18:36:38.012Z,61.60
2018-08-19T18:39:12.408Z,63.00
2018-08-19T18:41:48.391Z,61.80
2018-08-19T18:44:22.646Z,58.90
2018-08-19T18:46:55.572Z,61.20
2018-08-19T18:49:30.105Z,63.20
2018-08-19T18:52:08.000Z,64.40
2018-08-19T18:54:41.693Z,59.80
2018-08-19T18:57:15.299Z,61.00
2018-08-19T18:59:48.159Z,62.80
2018-08-19T19:02:22.461Z,64.10
2018-08-19T19:04:55.419Z,61.20
2018-08-19T19:07:28.489Z,59.70
2018-08-19T19:10:01.582Z,62.30
2018-08-19T19:12:34.659Z,64.20
2018-08-19T19:15:07.634Z,62.60
2018-08-19T19:17:43.572Z,64.60
2018-08-19T19:20:17.153Z,65.10
2018-08-19T19:22:54.679Z,65.30
2018-08-19T19:25:32.136Z,61.50
2018-08-19T19:28:05.410Z,63.90
2018-08-19T19:30:38.839Z,65.30
2018-08-19T19:33:16.165Z,65.00
2018-08-19T19:35:49.585Z,63.00
2018-08-19T19:38:22.854Z,65.20
2018-08-19T19:40:59.635Z,66.30
2018-08-19T19:43:32.831Z,63.80
2018-08-19T19:46:06.629Z,63.20
2018-08-19T19:48:39.865Z,65.30
2018-08-19T19:51:13.059Z,66.50
2018-08-19T19:53:46.142Z,63.50
2018-08-19T19:56:20.942Z,64.40
2018-08-19T19:58:54.846Z,65.90
2018-08-19T20:01:27.743Z,66.90
2018-08-19T20:04:01.941Z,62.80
2018-08-19T20:06:34.828Z,64.50
2018-08-19T20:09:07.941Z,65.90
2018-08-19T20:11:41.813Z,66.70
2018-08-19T20:14:15.695Z,63.00
2018-08-19T20:16:49.035Z,64.90
2018-08-19T20:19:21.847Z,66.70
2018-08-19T20:21:55.527Z,66.40
2018-08-19T20:24:28.533Z,65.30
2018-08-19T20:27:01.449Z,66.50
2018-08-19T20:29:34.889Z,67.40
2018-08-19T20:32:07.702Z,64.70
2018-08-19T20:34:41.874Z,64.60
2018-08-19T20:37:14.632Z,66.60
2018-08-19T20:39:47.544Z,67.40
2018-08-19T20:42:21.889Z,64.30
2018-08-19T20:44:55.234Z,66.50
2018-08-19T20:47:29.316Z,67.60
2018-08-19T20:50:02.138Z,67.50
2018-08-19T20:52:47.403Z,64.70
2018-08-19T20:55:20.328Z,67.10
2018-08-19T20:57:53.194Z,68.00
2018-08-19T21:00:26.413Z,65.60
2018-08-19T21:02:59.235Z,65.60
2018-08-19T21:05:33.210Z,67.20
2018-08-19T21:08:10.979Z,68.20
2018-08-19T21:10:44.948Z,65.10
2018-08-19T21:13:21.413Z,67.00
2018-08-19T21:15:55.527Z,68.10
2018-08-19T21:18:28.490Z,67.80
2018-08-19T21:21:01.413Z,64.90
2018-08-19T21:23:35.173Z,66.80
2018-08-19T21:26:08.754Z,67.90
2018-08-19T21:28:41.722Z,66.80
2018-08-19T21:31:15.596Z,68.60
2018-08-19T21:33:48.583Z,68.30
2018-08-19T21:36:21.530Z,68.50
2018-08-19T21:38:55.077Z,64.40
2018-08-19T21:41:35.769Z,66.90
2018-08-19T21:44:09.309Z,68.20
2018-08-19T21:46:42.301Z,67.70
2018-08-19T21:49:15.599Z,67.10
2018-08-19T21:51:48.490Z,68.70
2018-08-19T21:54:21.523Z,68.80
2018-08-19T21:56:54.906Z,66.70
2018-08-19T21:59:27.820Z,68.30
2018-08-19T22:02:01.634Z,68.90
2018-08-19T22:04:34.548Z,67.60
2018-08-19T22:07:07.455Z,68.00
2018-08-19T22:09:40.784Z,68.90
2018-08-19T22:12:14.488Z,69.10
2018-08-19T22:14:47.415Z,66.80
2018-08-19T22:17:21.009Z,68.50
2018-08-19T22:19:53.944Z,69.20
2018-08-19T22:22:27.010Z,67.80
2018-08-19T22:25:00.149Z,67.70
2018-08-19T22:27:33.849Z,69.30
2018-08-19T22:30:06.785Z,69.60
2018-08-19T22:32:39.701Z,66.90
2018-08-19T22:35:12.637Z,68.80
2018-08-19T22:37:46.159Z,69.80
2018-08-19T22:40:24.392Z,68.30
2018-08-19T22:42:57.395Z,69.20
2018-08-19T22:45:30.256Z,69.80
2018-08-19T22:48:03.915Z,69.50
2018-08-19T22:50:36.789Z,69.40
2018-08-19T22:53:10.396Z,69.40
2018-08-19T22:55:43.216Z,69.20
2018-08-19T22:58:16.118Z,69.20
2018-08-19T23:00:49.017Z,69.90
2018-08-19T23:03:21.860Z,69.00
2018-08-19T23:05:54.814Z,68.90
2018-08-19T23:08:30.892Z,68.80
2018-08-19T23:11:05.962Z,68.80
2018-08-19T23:13:47.720Z,68.60
2018-08-19T23:16:20.926Z,69.00
2018-08-19T23:18:53.830Z,68.70
2018-08-19T23:21:26.790Z,68.80
2018-08-19T23:24:00.426Z,69.00
2018-08-19T23:26:33.460Z,68.90
2018-08-19T23:29:06.596Z,69.00
2018-08-19T23:31:39.932Z,69.10
2018-08-19T23:34:13.220Z,69.00
2018-08-19T23:36:46.308Z,69.10
2018-08-19T23:39:19.524Z,69.10
2018-08-19T23:41:52.705Z,69.20
2018-08-19T23:44:25.762Z,69.40
2018-08-19T23:46:58.959Z,69.40
2018-08-19T23:49:34.209Z,69.50
2018-08-19T23:52:07.798Z,69.50
2018-08-19T23:54:41.305Z,69.40
2018-08-19T23:57:15.348Z,69.50
2018-08-19T23:59:50.988Z,69.60
